Time;durP1;ratioP1;P1;durP2;ratioP2;P2;SDS_P1;SDS_P2;PMS_P1;PMS_P2;Temp;Humidity;BMP_temperature;BMP_pressure;BME280_temperature;BME280_humidity;BME280_pressure;Samples;Min_cycle;Max_cycle;Signal;HPM_P1;HPM_P2
2024/03/30 00:01:49;;;;;;;1.35;1.25;;;14.20;69.80;;;;;;5018893;28;20042;-82
2024/03/30 00:04:14;;;;;;;1.50;1.40;;;14.20;69.80;;;;;;5007146;28;20032;-81
2024/03/30 00:06:41;;;;;;;2.05;1.27;;;14.20;69.60;;;;;;5022400;28;20034;-82
2024/03/30 00:09:07;;;;;;;1.63;1.20;;;14.20;69.70;;;;;;5006609;28;20041;-82
2024/03/30 00:11:34;;;;;;;2.05;1.52;;;14.20;69.80;;;;;;5005522;28;20045;-82
2024/03/30 00:14:00;;;;;;;2.03;1.65;;;14.20;69.80;;;;;;5002423;28;20034;-82
2024/03/30 00:16:26;;;;;;;1.45;1.35;;;14.20;69.70;;;;;;5006450;28;20500;-80
2024/03/30 00:18:53;;;;;;;1.52;1.35;;;14.20;69.70;;;;;;5006818;28;20124;-80
2024/03/30 00:21:19;;;;;;;1.40;1.30;;;14.20;69.70;;;;;;5007327;28;20061;-80
2024/03/30 00:23:46;;;;;;;2.28;1.58;;;14.20;69.70;;;;;;5001034;28;20129;-80
2024/03/30 00:26:12;;;;;;;1.40;1.27;;;14.10;69.70;;;;;;5007080;28;21296;-80
2024/03/30 00:28:38;;;;;;;1.83;1.70;;;14.20;69.70;;;;;;4989425;28;20030;-80
2024/03/30 00:31:04;;;;;;;2.13;1.60;;;14.20;69.90;;;;;;5023104;28;20111;-82
2024/03/30 00:33:30;;;;;;;1.60;1.40;;;14.20;69.70;;;;;;4972328;28;20045;-80
2024/03/30 00:35:57;;;;;;;1.88;1.70;;;14.20;69.70;;;;;;4969397;28;20039;-81
2024/03/30 00:38:24;;;;;;;2.75;1.48;;;14.20;69.70;;;;;;4987323;28;20494;-82
2024/03/30 00:40:50;;;;;;;2.30;1.30;;;14.20;69.60;;;;;;5002561;28;20449;-80
2024/03/30 00:43:17;;;;;;;1.30;1.20;;;14.20;69.60;;;;;;5002484;28;20157;-79
2024/03/30 00:45:44;;;;;;;2.10;1.65;;;14.20;69.50;;;;;;5005421;28;20037;-80
2024/03/30 00:48:11;;;;;;;1.27;1.17;;;14.20;69.40;;;;;;5021216;28;20061;-80
2024/03/30 00:50:38;;;;;;;1.85;1.20;;;14.20;69.30;;;;;;5004888;28;20072;-79
2024/03/30 00:53:04;;;;;;;1.30;1.20;;;14.20;69.20;;;;;;5006845;28;20034;-80
2024/03/30 00:55:31;;;;;;;1.20;1.10;;;14.20;69.20;;;;;;5012962;28;20038;-79
2024/03/30 00:57:58;;;;;;;1.55;1.40;;;14.20;69.20;;;;;;5006061;28;20037;-79
2024/03/30 01:00:25;;;;;;;1.42;1.30;;;14.20;69.40;;;;;;4988901;28;20045;-79
2024/03/30 01:02:51;;;;;;;2.10;1.27;;;14.20;69.50;;;;;;5005410;28;20520;-80
2024/03/30 01:05:19;;;;;;;1.52;1.40;;;14.20;69.30;;;;;;5005933;28;20514;-79
2024/03/30 01:07:45;;;;;;;1.30;1.17;;;14.20;69.30;;;;;;5020333;28;20069;-79
2024/03/30 01:10:11;;;;;;;1.52;1.40;;;14.20;69.50;;;;;;5006634;28;20034;-79
2024/03/30 01:12:39;;;;;;;1.30;1.20;;;14.20;69.40;;;;;;4987125;28;20499;-79
2024/03/30 01:15:05;;;;;;;1.13;1.00;;;14.20;69.30;;;;;;5006542;28;20136;-82
2024/03/30 01:17:35;;;;;;;1.65;1.33;;;14.20;69.30;;;;;;5002860;28;20100;-83
2024/03/30 01:20:06;;;;;;;2.60;1.23;;;14.20;69.20;;;;;;5004895;28;20475;-82
2024/03/30 01:22:35;;;;;;;1.33;1.02;;;14.20;69.20;;;;;;5006714;28;20488;-81
2024/03/30 01:25:02;;;;;;;2.05;1.25;;;14.20;69.00;;;;;;5007066;28;20030;-80
2024/03/30 01:27:29;;;;;;;1.98;1.27;;;14.20;69.00;;;;;;5005369;28;20085;-82
2024/03/30 01:30:00;;;;;;;1.30;1.17;;;14.20;68.80;;;;;;4990490;28;20543;-82
2024/03/30 01:32:26;;;;;;;1.40;1.02;;;14.20;68.80;;;;;;5010283;28;20050;-82
2024/03/30 01:34:52;;;;;;;1.48;0.98;;;14.20;68.60;;;;;;5002424;28;20037;-83
2024/03/30 01:37:18;;;;;;;1.58;1.10;;;14.20;68.50;;;;;;4983758;28;20085;-81
2024/03/30 01:39:44;;;;;;;0.95;0.90;;;14.20;68.30;;;;;;4986331;28;20517;-81
2024/03/30 01:42:10;;;;;;;2.97;1.05;;;14.20;68.20;;;;;;5002763;28;20554;-80
2024/03/30 01:44:36;;;;;;;1.08;1.00;;;14.20;68.10;;;;;;5004995;28;20041;-81
2024/03/30 01:47:03;;;;;;;0.90;0.90;;;14.20;68.00;;;;;;5006297;28;20080;-80
2024/03/30 01:49:29;;;;;;;1.60;1.20;;;14.20;67.90;;;;;;5004239;28;20044;-82
2024/03/30 01:51:55;;;;;;;0.70;0.70;;;14.20;67.70;;;;;;4988844;28;20057;-81
2024/03/30 01:54:22;;;;;;;1.98;1.15;;;14.20;67.60;;;;;;5001615;28;20496;-81
2024/03/30 01:56:51;;;;;;;2.50;1.40;;;14.20;67.50;;;;;;4996617;28;20037;-80
2024/03/30 01:59:17;;;;;;;2.65;0.95;;;14.20;67.40;;;;;;5002890;28;20042;-80
2024/03/30 02:01:46;;;;;;;0.77;0.77;;;14.20;67.40;;;;;;5004955;28;20034;-82
2024/03/30 02:04:14;;;;;;;0.90;0.90;;;14.20;67.40;;;;;;5005778;28;20030;-83
2024/03/30 02:06:42;;;;;;;0.88;0.75;;;14.20;67.30;;;;;;5004886;28;20037;-82
2024/03/30 02:09:10;;;;;;;1.75;0.90;;;14.10;67.40;;;;;;5005671;28;20034;-82
2024/03/30 02:11:39;;;;;;;1.40;0.88;;;14.10;66.90;;;;;;4986917;28;20053;-82
2024/03/30 02:14:08;;;;;;;1.13;1.02;;;14.10;66.90;;;;;;4999719;28;20547;-82
2024/03/30 02:16:35;;;;;;;0.80;0.80;;;14.10;66.80;;;;;;5004883;28;20061;-82
2024/03/30 02:19:05;;;;;;;1.13;0.98;;;14.10;66.70;;;;;;4990345;28;20054;-80
2024/03/30 02:21:32;;;;;;;1.42;1.08;;;14.10;66.70;;;;;;5018884;28;20168;-80
2024/03/30 02:23:58;;;;;;;1.40;0.88;;;14.10;66.60;;;;;;4985211;28;20058;-79
2024/03/30 02:26:25;;;;;;;1.13;0.98;;;14.10;66.60;;;;;;4990554;28;20138;-80
2024/03/30 02:28:52;;;;;;;1.27;0.80;;;14.10;66.70;;;;;;4990965;28;20042;-80
2024/03/30 02:31:19;;;;;;;1.63;0.70;;;14.10;66.60;;;;;;5006398;28;20030;-81
2024/03/30 02:33:46;;;;;;;1.58;0.90;;;14.10;66.40;;;;;;4990714;28;20666;-81
2024/03/30 02:36:14;;;;;;;1.05;0.95;;;14.10;66.40;;;;;;4990050;28;20054;-82
2024/03/30 02:38:40;;;;;;;2.35;0.73;;;14.10;66.30;;;;;;4983607;28;20049;-81
2024/03/30 02:41:06;;;;;;;0.80;0.80;;;14.00;66.40;;;;;;4996370;28;20034;-80
2024/03/30 02:43:32;;;;;;;0.70;0.70;;;14.00;66.30;;;;;;5008485;28;20249;-80
2024/03/30 02:45:59;;;;;;;0.80;0.80;;;14.00;66.40;;;;;;5008909;28;20117;-81
2024/03/30 02:48:25;;;;;;;1.10;0.93;;;14.00;66.10;;;;;;5008440;28;20037;-80
2024/03/30 02:50:51;;;;;;;0.88;0.80;;;14.00;66.30;;;;;;4990935;28;20041;-81
2024/03/30 02:53:17;;;;;;;0.70;0.70;;;14.00;66.40;;;;;;5008035;28;20083;-80
2024/03/30 02:55:43;;;;;;;0.80;0.55;;;14.00;66.30;;;;;;5014457;28;20038;-80
2024/03/30 02:58:09;;;;;;;1.52;0.70;;;14.00;66.30;;;;;;4991368;28;20034;-80
2024/03/30 03:00:35;;;;;;;1.55;0.80;;;14.00;66.30;;;;;;5005909;28;20389;-81
2024/03/30 03:03:01;;;;;;;0.93;0.93;;;14.00;66.30;;;;;;5009518;28;20168;-79
2024/03/30 03:05:27;;;;;;;1.05;0.88;;;14.00;66.30;;;;;;5009059;28;20500;-80
2024/03/30 03:07:53;;;;;;;1.02;0.80;;;14.00;66.20;;;;;;4986732;28;20072;-80
2024/03/30 03:10:19;;;;;;;1.05;0.68;;;14.00;66.30;;;;;;5004715;28;20030;-80
2024/03/30 03:12:45;;;;;;;1.75;0.90;;;14.00;66.80;;;;;;5007232;28;20492;-80
2024/03/30 03:15:11;;;;;;;2.13;0.82;;;14.00;66.00;;;;;;5008597;28;20030;-80
2024/03/30 03:17:37;;;;;;;1.27;0.93;;;14.00;66.20;;;;;;4976621;28;20041;-80
2024/03/30 03:20:05;;;;;;;0.70;0.70;;;14.00;66.20;;;;;;5009234;28;20041;-80
2024/03/30 03:22:34;;;;;;;0.88;0.88;;;14.00;66.20;;;;;;5006597;28;20026;-81
2024/03/30 03:25:02;;;;;;;1.30;0.88;;;13.90;66.00;;;;;;5024266;28;20467;-80
2024/03/30 03:27:28;;;;;;;0.90;0.63;;;13.90;66.00;;;;;;5007421;28;20117;-81
2024/03/30 03:29:54;;;;;;;0.82;0.70;;;14.00;66.00;;;;;;5005383;28;20033;-81
2024/03/30 03:32:20;;;;;;;0.70;0.70;;;14.00;66.10;;;;;;5008542;28;20431;-80
2024/03/30 03:34:46;;;;;;;0.73;0.73;;;13.90;66.00;;;;;;4987982;28;20568;-81
2024/03/30 03:37:12;;;;;;;0.93;0.88;;;13.90;66.10;;;;;;4987493;28;20121;-81
2024/03/30 03:39:38;;;;;;;1.20;0.80;;;13.90;66.10;;;;;;5013297;28;20034;-81
2024/03/30 03:42:04;;;;;;;0.50;0.50;;;14.00;66.20;;;;;;4987474;28;20125;-83
2024/03/30 03:44:30;;;;;;;1.60;0.73;;;13.90;66.00;;;;;;4987554;28;20796;-82
2024/03/30 03:46:57;;;;;;;3.25;0.80;;;14.00;66.20;;;;;;5003857;28;20653;-81
2024/03/30 03:49:24;;;;;;;0.73;0.73;;;14.00;66.20;;;;;;5002948;28;20038;-81
2024/03/30 03:51:50;;;;;;;0.88;0.88;;;13.90;66.20;;;;;;5022456;28;20030;-81
2024/03/30 03:54:19;;;;;;;1.17;0.90;;;14.00;66.20;;;;;;5008028;28;20045;-82
2024/03/30 03:56:45;;;;;;;0.90;0.88;;;14.00;66.30;;;;;;5007715;28;20092;-81
2024/03/30 03:59:11;;;;;;;1.75;0.90;;;14.00;66.20;;;;;;5006919;28;20036;-81
2024/03/30 04:01:37;;;;;;;1.50;0.88;;;14.00;66.30;;;;;;5014616;28;20045;-81
2024/03/30 04:04:03;;;;;;;1.00;0.80;;;14.00;66.30;;;;;;4990746;28;20021;-80
2024/03/30 04:06:29;;;;;;;1.95;0.95;;;14.00;66.30;;;;;;5005437;28;20684;-81
2024/03/30 04:08:56;;;;;;;2.75;0.90;;;14.00;66.30;;;;;;5006759;28;20030;-82
2024/03/30 04:11:23;;;;;;;2.10;0.90;;;14.00;66.30;;;;;;5007994;28;20164;-83
2024/03/30 04:13:49;;;;;;;2.30;0.95;;;14.00;66.30;;;;;;4987721;28;20626;-81
2024/03/30 04:16:16;;;;;;;1.15;0.88;;;14.00;66.20;;;;;;5003632;28;20034;-81
2024/03/30 04:18:43;;;;;;;1.33;1.23;;;14.00;66.20;;;;;;5016758;28;20487;-82
2024/03/30 04:21:09;;;;;;;1.30;1.20;;;14.00;66.30;;;;;;4990141;28;20175;-81
2024/03/30 04:23:35;;;;;;;3.03;1.00;;;14.00;66.20;;;;;;4986893;28;20035;-82
2024/03/30 04:26:08;;;;;;;1.30;1.20;;;14.00;66.20;;;;;;4969560;28;20038;-82
2024/03/30 04:28:34;;;;;;;1.40;0.95;;;14.00;66.20;;;;;;4988047;28;20068;-82
2024/03/30 04:31:03;;;;;;;2.15;0.90;;;14.10;66.20;;;;;;4989683;28;20042;-83
2024/03/30 04:33:29;;;;;;;1.75;1.10;;;14.00;66.10;;;;;;5007091;28;20525;-82
2024/03/30 04:36:03;;;;;;;1.65;1.10;;;14.10;66.10;;;;;;5007591;28;20038;-82
2024/03/30 04:38:30;;;;;;;1.30;1.17;;;14.10;66.20;;;;;;4969542;28;20038;-79
2024/03/30 04:41:06;;;;;;;1.08;0.90;;;14.10;66.20;;;;;;4991630;28;20034;-78
2024/03/30 04:43:34;;;;;;;2.05;0.98;;;14.10;66.10;;;;;;5004834;28;20040;-78
2024/03/30 04:46:01;;;;;;;1.15;0.90;;;14.10;66.10;;;;;;5007235;28;20038;-79
2024/03/30 04:48:30;;;;;;;2.28;1.25;;;14.20;66.20;;;;;;4988775;28;20440;-81
2024/03/30 04:50:59;;;;;;;2.28;1.17;;;14.20;66.10;;;;;;5006226;28;20448;-77
2024/03/30 04:53:32;;;;;;;1.10;1.00;;;14.20;66.10;;;;;;5004825;28;20789;-77
2024/03/30 04:56:00;;;;;;;1.45;0.93;;;14.20;66.20;;;;;;5003604;28;20030;-77
2024/03/30 04:58:29;;;;;;;1.10;0.90;;;14.20;66.80;;;;;;5011461;28;20065;-78
2024/03/30 05:01:00;;;;;;;1.15;1.05;;;14.30;66.30;;;;;;4988654;28;20026;-77
2024/03/30 05:03:26;;;;;;;2.15;1.23;;;14.30;66.10;;;;;;5005474;28;20099;-76
2024/03/30 05:05:52;;;;;;;1.25;1.15;;;14.30;66.00;;;;;;5005489;28;20034;-75
2024/03/30 05:08:18;;;;;;;2.05;1.13;;;14.40;66.10;;;;;;5008848;28;20512;-75
2024/03/30 05:10:45;;;;;;;1.48;0.90;;;14.40;66.20;;;;;;5007022;28;20511;-77
2024/03/30 05:13:11;;;;;;;1.83;1.13;;;14.40;66.10;;;;;;5005326;28;20022;-77
2024/03/30 05:15:40;;;;;;;1.30;1.00;;;14.40;66.00;;;;;;5005606;28;20046;-77
2024/03/30 05:18:08;;;;;;;1.23;1.13;;;14.50;66.20;;;;;;5002450;28;20061;-74
2024/03/30 05:20:50;;;;;;;2.00;1.20;;;14.50;66.20;;;;;;4984307;28;20031;-76
2024/03/30 05:23:21;;;;;;;2.05;1.27;;;14.60;66.20;;;;;;4997214;28;20454;-75
2024/03/30 05:25:49;;;;;;;1.30;1.05;;;14.70;66.00;;;;;;4995352;28;20057;-75
2024/03/30 05:28:17;;;;;;;2.72;1.10;;;14.80;65.90;;;;;;4979406;28;20038;-76
2024/03/30 05:30:43;;;;;;;3.95;1.05;;;14.90;66.00;;;;;;4998469;28;20038;-76
2024/03/30 05:33:11;;;;;;;2.67;1.00;;;14.90;66.00;;;;;;4984625;28;20050;-75
2024/03/30 05:35:37;;;;;;;1.30;0.93;;;15.00;66.00;;;;;;5000981;28;20165;-76
2024/03/30 05:38:04;;;;;;;3.50;1.10;;;15.10;66.00;;;;;;4983365;28;20035;-78
2024/03/30 05:40:34;;;;;;;3.38;1.10;;;15.20;66.00;;;;;;4984836;28;20033;-76
2024/03/30 05:43:04;;;;;;;1.15;0.90;;;15.30;66.00;;;;;;4986169;28;20026;-79
2024/03/30 05:45:35;;;;;;;2.65;1.10;;;15.40;65.80;;;;;;4984066;28;20165;-80
2024/03/30 05:48:01;;;;;;;2.80;1.65;;;15.50;66.20;;;;;;4999050;28;20042;-78
2024/03/30 05:50:29;;;;;;;3.38;1.23;;;15.50;63.80;;;;;;5001207;28;20509;-78
2024/03/30 05:52:56;;;;;;;1.88;1.23;;;15.60;63.30;;;;;;4990264;28;20034;-77
2024/03/30 05:55:22;;;;;;;1.77;1.30;;;15.70;62.80;;;;;;4988430;28;20061;-76
2024/03/30 05:57:50;;;;;;;1.55;1.45;;;15.80;62.00;;;;;;5005558;28;20042;-77
2024/03/30 06:00:16;;;;;;;1.75;1.63;;;15.90;61.90;;;;;;5005017;28;20038;-78
2024/03/30 06:02:44;;;;;;;3.50;1.42;;;16.00;61.70;;;;;;5002698;28;20037;-77
2024/03/30 06:05:11;;;;;;;1.58;1.48;;;16.00;61.20;;;;;;5002573;28;20566;-76
2024/03/30 06:07:38;;;;;;;1.90;1.63;;;16.10;61.20;;;;;;5004744;28;20128;-77
2024/03/30 06:10:05;;;;;;;1.50;1.40;;;16.20;60.10;;;;;;5019822;28;20141;-78
2024/03/30 06:12:31;;;;;;;2.30;1.30;;;16.30;60.10;;;;;;4999687;28;20149;-79
2024/03/30 06:14:57;;;;;;;2.97;1.70;;;16.40;60.30;;;;;;4999104;28;20747;-78
2024/03/30 06:17:23;;;;;;;2.72;1.80;;;16.50;59.70;;;;;;4998670;28;20099;-75
2024/03/30 06:19:49;;;;;;;2.65;1.75;;;16.60;59.40;;;;;;5007593;28;20050;-74
2024/03/30 06:22:15;;;;;;;2.25;1.70;;;16.70;59.20;;;;;;5008078;28;20029;-76
2024/03/30 06:24:42;;;;;;;1.80;1.70;;;16.80;58.40;;;;;;5007870;28;20060;-77
2024/03/30 06:27:09;;;;;;;3.33;1.92;;;16.80;57.70;;;;;;4990730;28;20045;-78
2024/03/30 06:29:36;;;;;;;3.13;1.60;;;16.90;57.30;;;;;;5007946;28;20038;-76
2024/03/30 06:32:03;;;;;;;2.97;2.10;;;17.00;57.10;;;;;;5006772;28;20061;-77
2024/03/30 06:34:30;;;;;;;1.88;1.60;;;17.00;56.80;;;;;;5008424;28;20556;-74
2024/03/30 06:36:56;;;;;;;2.75;1.80;;;17.10;56.40;;;;;;5022058;28;20175;-77
2024/03/30 06:39:22;;;;;;;2.53;1.75;;;17.10;56.40;;;;;;5022110;28;20366;-75
2024/03/30 06:44:33;;;;;;;1.92;1.75;;;17.30;55.70;;;;;;5006732;28;20675;-75
2024/03/30 06:46:59;;;;;;;1.55;1.45;;;17.30;55.40;;;;;;5007506;28;20412;-74
2024/03/30 06:49:25;;;;;;;1.85;1.75;;;17.40;55.30;;;;;;5006169;28;20121;-76
2024/03/30 06:51:52;;;;;;;2.38;1.73;;;17.50;55.20;;;;;;5006129;28;20060;-76
2024/03/30 06:54:20;;;;;;;2.05;1.95;;;17.60;55.00;;;;;;5007624;28;20034;-76
2024/03/30 06:56:46;;;;;;;1.77;1.67;;;17.60;54.80;;;;;;5002899;28;20048;-82
2024/03/30 06:59:12;;;;;;;1.88;1.50;;;17.70;54.70;;;;;;5004215;28;20038;-76
2024/03/30 07:01:38;;;;;;;1.50;1.30;;;17.70;54.20;;;;;;5006831;28;20505;-77
2024/03/30 07:04:05;;;;;;;1.70;1.60;;;17.80;54.10;;;;;;5006263;28;20525;-76
2024/03/30 07:06:31;;;;;;;2.50;1.50;;;17.80;53.90;;;;;;4988692;28;20034;-75
2024/03/30 07:08:57;;;;;;;1.40;1.20;;;17.90;53.60;;;;;;5006224;28;20538;-76
2024/03/30 07:11:24;;;;;;;1.85;1.40;;;18.00;53.30;;;;;;5006014;28;20030;-75
2024/03/30 07:13:50;;;;;;;5.45;1.95;;;18.00;52.80;;;;;;5006551;28;20578;-74
2024/03/30 07:16:16;;;;;;;2.40;1.30;;;18.00;52.40;;;;;;5007272;28;20030;-75
2024/03/30 07:18:44;;;;;;;2.10;1.33;;;18.00;52.10;;;;;;5010747;28;20030;-82
2024/03/30 07:21:11;;;;;;;2.00;1.50;;;17.90;51.80;;;;;;5026111;28;20133;-79
2024/03/30 07:23:37;;;;;;;1.88;1.33;;;18.00;51.80;;;;;;4998912;28;20505;-78
2024/03/30 07:26:04;;;;;;;1.65;1.23;;;18.00;51.90;;;;;;5004370;28;20388;-80
2024/03/30 07:28:31;;;;;;;1.48;1.15;;;18.00;51.60;;;;;;4990100;28;20038;-79
2024/03/30 07:31:04;;;;;;;1.83;1.15;;;18.00;51.50;;;;;;5007449;28;20025;-80
2024/03/30 07:33:30;;;;;;;3.22;1.33;;;18.10;53.20;;;;;;5006426;28;20076;-80
2024/03/30 07:35:57;;;;;;;2.35;1.42;;;18.10;51.90;;;;;;5006620;28;20030;-81
2024/03/30 07:38:32;;;;;;;1.40;1.30;;;18.20;51.80;;;;;;5002304;28;20085;-81
2024/03/30 07:40:59;;;;;;;1.27;1.20;;;18.10;51.30;;;;;;4989447;28;20138;-80
2024/03/30 07:43:25;;;;;;;1.30;1.17;;;18.20;51.50;;;;;;5007276;28;20030;-80
2024/03/30 07:45:52;;;;;;;1.10;1.00;;;18.20;50.70;;;;;;4992045;28;20512;-79
2024/03/30 07:48:19;;;;;;;2.10;1.10;;;18.20;50.50;;;;;;4991658;28;20056;-81
2024/03/30 07:50:45;;;;;;;1.63;0.95;;;18.20;51.30;;;;;;4991787;28;20529;-79
2024/03/30 07:53:11;;;;;;;1.55;0.60;;;18.30;52.00;;;;;;4991619;28;20492;-81
2024/03/30 07:55:39;;;;;;;1.17;0.80;;;18.50;52.60;;;;;;4992094;28;20397;-81
2024/03/30 07:58:05;;;;;;;1.55;1.00;;;18.60;52.50;;;;;;4990699;28;20034;-81
2024/03/30 08:00:31;;;;;;;1.30;0.88;;;18.60;51.60;;;;;;4991658;28;20038;-79
2024/03/30 08:03:01;;;;;;;2.28;1.00;;;18.60;51.30;;;;;;5007466;28;20124;-81
2024/03/30 08:05:28;;;;;;;3.20;1.15;;;18.60;51.10;;;;;;4993582;28;20039;-80
2024/03/30 08:07:54;;;;;;;2.15;1.05;;;18.70;49.90;;;;;;4987191;28;20088;-79
2024/03/30 08:10:22;;;;;;;2.20;0.95;;;18.60;49.60;;;;;;4992023;28;20053;-81
2024/03/30 08:12:48;;;;;;;1.85;0.90;;;18.60;49.40;;;;;;4986747;28;20038;-81
2024/03/30 08:15:15;;;;;;;1.65;1.20;;;18.60;49.20;;;;;;4989787;28;20137;-80
2024/03/30 08:17:42;;;;;;;2.28;1.20;;;18.50;48.80;;;;;;5001015;28;20041;-80
2024/03/30 08:20:09;;;;;;;2.28;0.98;;;18.40;48.90;;;;;;5001553;28;20026;-81
2024/03/30 08:22:38;;;;;;;2.83;0.90;;;18.40;48.80;;;;;;4993088;28;20030;-80
2024/03/30 08:25:05;;;;;;;3.38;0.90;;;18.40;49.20;;;;;;4990294;28;20477;-80
2024/03/30 08:27:34;;;;;;;1.70;0.80;;;18.40;49.70;;;;;;5021546;28;20048;-80
2024/03/30 08:30:04;;;;;;;2.15;1.23;;;18.40;49.80;;;;;;5006821;28;20040;-81
2024/03/30 08:32:30;;;;;;;1.33;1.02;;;18.40;49.50;;;;;;5006046;28;20037;-79
2024/03/30 08:34:56;;;;;;;0.85;0.85;;;18.30;48.80;;;;;;5005701;28;20443;-80
2024/03/30 08:37:23;;;;;;;1.58;0.95;;;18.10;48.70;;;;;;5005822;28;20025;-80
2024/03/30 08:39:49;;;;;;;2.53;0.98;;;18.00;48.70;;;;;;5006441;28;20038;-80
2024/03/30 08:42:15;;;;;;;1.25;1.00;;;18.00;48.70;;;;;;5005523;28;20034;-80
2024/03/30 08:44:41;;;;;;;1.90;0.80;;;17.80;48.70;;;;;;5006214;28;20042;-81
2024/03/30 08:47:07;;;;;;;2.10;1.05;;;17.80;49.10;;;;;;5007091;28;20050;-80
2024/03/30 08:49:33;;;;;;;1.35;1.00;;;17.80;49.30;;;;;;5005865;28;20034;-78
2024/03/30 08:51:59;;;;;;;2.25;1.10;;;17.80;49.30;;;;;;5022838;28;20026;-80
2024/03/30 08:54:25;;;;;;;1.80;1.35;;;17.70;48.90;;;;;;5005055;28;20181;-80
2024/03/30 08:56:51;;;;;;;2.47;1.17;;;17.60;49.00;;;;;;5001487;28;20050;-79
2024/03/30 08:59:17;;;;;;;1.25;0.73;;;17.60;49.10;;;;;;4987532;28;20035;-80
2024/03/30 09:01:45;;;;;;;1.00;0.90;;;17.50;49.40;;;;;;4987742;28;20566;-81
2024/03/30 09:04:11;;;;;;;3.08;0.77;;;17.40;49.60;;;;;;4991581;28;20057;-80
2024/03/30 09:06:37;;;;;;;0.82;0.70;;;17.50;50.30;;;;;;5001384;28;20470;-80
2024/03/30 09:09:04;;;;;;;2.17;0.90;;;17.50;50.50;;;;;;5000231;28;20046;-79
2024/03/30 09:11:30;;;;;;;1.30;1.05;;;17.50;51.20;;;;;;5006470;28;20121;-77
2024/03/30 09:13:56;;;;;;;3.00;0.77;;;17.50;51.90;;;;;;5004786;28;20041;-76
2024/03/30 09:16:22;;;;;;;3.65;1.20;;;17.50;51.90;;;;;;5007567;28;20034;-78
2024/03/30 09:19:07;;;;;;;2.08;0.98;;;17.60;51.90;;;;;;5001863;28;20050;-77
2024/03/30 09:21:33;;;;;;;2.08;0.90;;;17.50;52.00;;;;;;5003276;28;20034;-77
2024/03/30 09:23:59;;;;;;;2.45;1.00;;;17.50;52.00;;;;;;5005480;28;20090;-78
2024/03/30 09:26:25;;;;;;;2.70;1.08;;;17.60;52.40;;;;;;5005547;28;20042;-78
2024/03/30 09:28:51;;;;;;;4.30;1.30;;;17.60;52.30;;;;;;5005749;28;20111;-78
2024/03/30 09:31:17;;;;;;;1.77;1.00;;;17.60;52.00;;;;;;5022118;28;20033;-80
2024/03/30 09:33:43;;;;;;;2.42;0.90;;;17.60;52.40;;;;;;5002779;28;20034;-79
2024/03/30 09:36:12;;;;;;;2.80;1.02;;;17.70;53.10;;;;;;5000213;28;20038;-78
2024/03/30 09:38:38;;;;;;;2.05;1.30;;;17.70;52.50;;;;;;4996333;28;20053;-78
2024/03/30 09:41:09;;;;;;;2.53;1.30;;;17.70;52.40;;;;;;4998510;28;20222;-75
2024/03/30 09:43:35;;;;;;;4.15;1.33;;;17.70;52.00;;;;;;4986523;28;20645;-76
2024/03/30 09:46:02;;;;;;;2.35;1.05;;;17.60;51.70;;;;;;5005547;28;20030;-77
2024/03/30 09:48:33;;;;;;;2.85;0.90;;;17.60;51.80;;;;;;5005570;28;20042;-77
2024/03/30 09:50:59;;;;;;;2.42;0.70;;;17.50;51.80;;;;;;5009272;28;20042;-77
2024/03/30 09:53:27;;;;;;;1.05;0.70;;;17.50;52.10;;;;;;4994723;28;20034;-76
2024/03/30 09:55:57;;;;;;;0.77;0.60;;;17.50;52.40;;;;;;5003380;28;20030;-76
2024/03/30 09:58:24;;;;;;;3.83;1.02;;;17.60;52.40;;;;;;5013089;28;20037;-76
2024/03/30 10:00:52;;;;;;;2.67;0.98;;;17.50;52.20;;;;;;5009968;28;20103;-76
2024/03/30 10:03:18;;;;;;;1.15;0.60;;;17.50;52.10;;;;;;5001530;28;20035;-76
2024/03/30 10:05:47;;;;;;;1.60;0.90;;;17.50;52.30;;;;;;4994940;28;20038;-76
2024/03/30 10:08:17;;;;;;;2.28;0.80;;;17.50;52.30;;;;;;5005798;28;20054;-80
2024/03/30 10:10:49;;;;;;;0.90;0.80;;;17.50;51.90;;;;;;5008018;28;20484;-79
2024/03/30 10:13:26;;;;;;;1.80;0.82;;;17.30;51.20;;;;;;5010058;28;20026;-77
2024/03/30 10:15:53;;;;;;;2.58;1.15;;;17.30;50.70;;;;;;5007272;28;20176;-77
2024/03/30 10:18:19;;;;;;;1.30;0.70;;;17.10;50.40;;;;;;5007311;28;20042;-79
2024/03/30 10:20:45;;;;;;;1.05;0.73;;;17.10;50.80;;;;;;5006611;28;20052;-80
2024/03/30 10:23:12;;;;;;;2.05;0.90;;;17.00;50.90;;;;;;4988800;28;20592;-80
2024/03/30 10:25:38;;;;;;;0.80;0.80;;;17.00;50.80;;;;;;4989510;28;20493;-82
2024/03/30 10:28:07;;;;;;;2.63;0.65;;;16.90;51.00;;;;;;4988608;28;20034;-84
2024/03/30 10:30:33;;;;;;;2.40;0.70;;;16.90;51.00;;;;;;5000465;28;20108;-77
2024/03/30 10:33:10;;;;;;;0.73;0.50;;;17.00;51.60;;;;;;5015432;28;20041;-77
2024/03/30 10:35:36;;;;;;;0.68;0.50;;;17.10;52.40;;;;;;5022807;28;20045;-78
2024/03/30 10:38:03;;;;;;;0.63;0.50;;;17.20;53.10;;;;;;5007421;28;20034;-77
2024/03/30 10:40:29;;;;;;;1.15;0.60;;;17.30;53.60;;;;;;5006876;28;20030;-78
2024/03/30 10:42:57;;;;;;;0.95;0.80;;;17.30;52.20;;;;;;5008015;28;20029;-77
2024/03/30 10:45:27;;;;;;;1.67;0.82;;;17.20;51.60;;;;;;5009072;28;20045;-78
2024/03/30 10:47:57;;;;;;;2.08;0.88;;;17.20;51.50;;;;;;5006826;28;20092;-76
2024/03/30 10:50:26;;;;;;;3.17;1.00;;;17.10;51.40;;;;;;5023852;28;20069;-77
2024/03/30 10:52:53;;;;;;;1.10;0.65;;;17.10;51.50;;;;;;5007468;28;20133;-77
2024/03/30 10:55:19;;;;;;;3.80;0.70;;;17.10;52.00;;;;;;5023965;28;20128;-77
2024/03/30 10:57:45;;;;;;;1.08;0.70;;;17.20;52.50;;;;;;5004017;28;20085;-75
2024/03/30 11:00:12;;;;;;;1.13;0.52;;;17.30;52.70;;;;;;5003197;28;20037;-76
2024/03/30 11:02:40;;;;;;;0.90;0.82;;;17.30;52.50;;;;;;5005511;28;20058;-76
2024/03/30 11:05:07;;;;;;;0.73;0.60;;;17.30;51.60;;;;;;5006703;28;20033;-76
2024/03/30 11:07:37;;;;;;;1.10;0.50;;;17.20;51.40;;;;;;5005949;28;20092;-77
2024/03/30 11:10:05;;;;;;;1.67;0.68;;;17.20;51.10;;;;;;4990915;28;20622;-77
2024/03/30 11:12:32;;;;;;;1.15;0.68;;;17.20;51.10;;;;;;5004221;28;20034;-76
2024/03/30 11:15:18;;;;;;;0.55;0.45;;;17.10;50.60;;;;;;5007461;28;20026;-76
2024/03/30 11:17:50;;;;;;;2.40;0.90;;;17.10;50.60;;;;;;5016975;28;20034;-76
2024/03/30 11:20:22;;;;;;;1.08;0.85;;;17.10;50.40;;;;;;5007885;28;20038;-77
2024/03/30 11:22:55;;;;;;;2.15;0.80;;;17.00;50.50;;;;;;5018521;28;20041;-77
2024/03/30 11:25:24;;;;;;;2.20;0.70;;;17.10;50.80;;;;;;5008141;28;20033;-77
2024/03/30 11:28:26;;;;;;;1.92;0.60;;;17.10;51.40;;;;;;5006934;28;20053;-77
2024/03/30 11:31:15;;;;;;;1.20;0.50;;;17.20;51.80;;;;;;4986673;28;20397;-77
2024/03/30 11:33:49;;;;;;;1.27;0.70;;;17.30;52.10;;;;;;5006379;28;20030;-77
2024/03/30 11:36:30;;;;;;;1.00;0.50;;;17.30;52.20;;;;;;5006527;28;20066;-77
2024/03/30 11:39:06;;;;;;;0.75;0.60;;;17.30;51.50;;;;;;5006723;28;20120;-76
2024/03/30 11:41:33;;;;;;;1.92;0.60;;;17.30;51.40;;;;;;5008049;28;20041;-77
2024/03/30 11:44:09;;;;;;;1.48;0.50;;;17.30;50.90;;;;;;4974154;28;20121;-77
2024/03/30 11:46:39;;;;;;;1.52;0.57;;;17.30;51.60;;;;;;5022455;28;20042;-76
2024/03/30 11:49:09;;;;;;;2.70;0.60;;;17.30;51.50;;;;;;5006633;28;20412;-77
2024/03/30 11:51:40;;;;;;;1.77;0.73;;;17.30;51.50;;;;;;5006775;28;20030;-77
2024/03/30 11:54:26;;;;;;;0.60;0.50;;;17.40;51.60;;;;;;5007579;28;20036;-78
2024/03/30 11:57:14;;;;;;;1.75;0.60;;;17.40;51.00;;;;;;5004796;28;20812;-76
2024/03/30 11:59:48;;;;;;;1.95;0.70;;;17.40;51.00;;;;;;5007108;28;20103;-78
2024/03/30 12:02:15;;;;;;;3.05;0.90;;;17.30;50.50;;;;;;5006844;28;20034;-76
2024/03/30 12:04:48;;;;;;;1.35;0.80;;;17.30;50.40;;;;;;5006801;28;20049;-77
2024/03/30 12:07:16;;;;;;;1.63;1.08;;;17.20;50.60;;;;;;5006905;28;20033;-77
2024/03/30 12:09:43;;;;;;;1.52;0.80;;;17.20;50.60;;;;;;5007241;28;20030;-77
2024/03/30 12:12:25;;;;;;;2.15;0.90;;;17.20;50.70;;;;;;4989435;28;20029;-76
2024/03/30 12:14:53;;;;;;;1.38;0.80;;;17.20;50.20;;;;;;5018387;28;20092;-77
2024/03/30 12:17:19;;;;;;;2.28;0.73;;;17.10;50.00;;;;;;5005619;28;20036;-77
2024/03/30 12:19:47;;;;;;;1.73;0.70;;;17.10;49.90;;;;;;5006288;28;20096;-76
2024/03/30 12:22:21;;;;;;;0.60;0.60;;;17.10;50.20;;;;;;5007019;28;20029;-77
2024/03/30 12:24:49;;;;;;;1.95;0.57;;;17.00;49.90;;;;;;5006756;28;20026;-77
2024/03/30 12:27:19;;;;;;;0.55;0.50;;;16.90;49.60;;;;;;5005927;28;20053;-77
2024/03/30 12:29:45;;;;;;;0.50;0.50;;;16.90;49.60;;;;;;5000013;28;20030;-78
2024/03/30 12:32:11;;;;;;;0.73;0.63;;;16.90;49.70;;;;;;5006958;28;20038;-77
2024/03/30 12:34:38;;;;;;;1.73;0.77;;;16.80;49.80;;;;;;5005699;28;20037;-77
2024/03/30 12:37:04;;;;;;;2.10;0.70;;;16.80;49.90;;;;;;5004423;28;20084;-76
2024/03/30 12:39:30;;;;;;;1.45;0.82;;;16.80;50.00;;;;;;5006719;28;20034;-76
2024/03/30 12:41:56;;;;;;;2.85;0.90;;;16.70;50.20;;;;;;5006743;28;20034;-78
2024/03/30 12:44:22;;;;;;;4.68;0.73;;;16.60;50.30;;;;;;5005602;28;20041;-78
2024/03/30 12:46:48;;;;;;;2.03;0.65;;;16.60;50.50;;;;;;5020017;28;20048;-75
2024/03/30 12:49:14;;;;;;;4.38;0.90;;;16.60;50.80;;;;;;5022479;28;20041;-84
2024/03/30 12:51:41;;;;;;;1.88;0.60;;;16.60;51.60;;;;;;5014724;28;20451;-85
2024/03/30 12:54:09;;;;;;;1.75;0.80;;;16.70;52.30;;;;;;5007105;28;20215;-87